createdAt,value
2022-10-18T00:01:32.992Z,99.9
2022-10-18T00:03:34.503Z,99.9
2022-10-18T00:05:35.802Z,99.9
2022-10-18T00:07:37.213Z,99.9
2022-10-18T00:09:38.583Z,99.9
2022-10-18T00:11:43.300Z,99.9
2022-10-18T00:13:44.674Z,99.9
2022-10-18T00:15:46.069Z,99.9
2022-10-18T00:16:48.474Z,99.9
2022-10-18T00:18:49.825Z,99.9
2022-10-18T00:20:51.241Z,99.9
2022-10-18T00:22:52.661Z,99.9
2022-10-18T00:24:57.368Z,99.9
2022-10-18T00:26:58.765Z,99.9
2022-10-18T00:31:01.549Z,99.9
2022-10-18T00:33:02.943Z,99.9
2022-10-18T00:35:04.342Z,99.9
2022-10-18T00:53:23.530Z,99.9
2022-10-18T00:57:26.360Z,99.9
2022-10-18T00:59:27.714Z,99.9
2022-10-18T01:01:29.356Z,99.9
2022-10-18T01:03:30.538Z,99.9
2022-10-18T01:05:31.902Z,99.9
2022-10-18T01:07:36.666Z,99.9
2022-10-18T01:09:38.042Z,99.9
2022-10-18T01:11:39.435Z,99.9
2022-10-18T01:13:59.987Z,99.9
2022-10-18T01:16:01.398Z,99.9
2022-10-18T01:18:02.781Z,99.9
2022-10-18T01:20:07.501Z,99.9
2022-10-18T01:22:08.936Z,99.9
2022-10-18T01:24:10.286Z,99.9
2022-10-18T01:26:11.717Z,99.9
2022-10-18T01:28:13.105Z,99.9
2022-10-18T01:30:14.493Z,99.9
2022-10-18T01:32:15.873Z,99.9
2022-10-18T01:34:20.618Z,99.9
2022-10-18T01:36:21.967Z,99.9
2022-10-18T01:38:23.398Z,99.9
2022-10-18T01:40:24.775Z,99.9
2022-10-18T01:42:26.172Z,99.9
2022-10-18T01:44:27.591Z,99.9
2022-10-18T01:48:33.706Z,99.9
2022-10-18T01:50:35.069Z,99.9
2022-10-18T01:52:36.481Z,99.9
2022-10-18T01:54:37.882Z,99.9
2022-10-18T01:56:39.273Z,99.9
2022-10-18T01:58:40.683Z,99.9
2022-10-18T02:00:42.088Z,99.9
2022-10-18T02:02:46.799Z,99.9
2022-10-18T02:04:48.163Z,99.9
2022-10-18T02:06:49.598Z,99.9
2022-10-18T02:08:00.279Z,99.9
2022-10-18T02:09:53.352Z,99.9
2022-10-18T02:11:54.785Z,99.9
2022-10-18T02:13:56.170Z,99.9
2022-10-18T02:16:00.861Z,99.9
2022-10-18T02:18:02.253Z,99.9
2022-10-18T02:20:03.626Z,99.9
2022-10-18T02:22:05.044Z,99.9
2022-10-18T02:26:07.851Z,99.9
2022-10-18T02:28:09.222Z,99.9
2022-10-18T02:30:13.923Z,99.9
2022-10-18T02:32:15.380Z,99.9
2022-10-18T02:34:16.753Z,99.9
2022-10-18T02:36:18.153Z,99.9
2022-10-18T02:38:19.524Z,99.9
2022-10-18T02:40:20.929Z,99.9
2022-10-18T02:42:22.370Z,99.9
2022-10-18T02:44:27.042Z,99.9
2022-10-18T02:46:28.474Z,99.9
2022-10-18T02:48:29.857Z,99.9
2022-10-18T02:50:31.219Z,99.9
2022-10-18T02:52:32.622Z,99.9
2022-10-18T02:54:34.034Z,99.9
2022-10-18T02:56:35.440Z,99.9
2022-10-18T03:00:41.538Z,99.9
2022-10-18T03:03:45.291Z,99.9
2022-10-18T03:05:46.717Z,99.9
2022-10-18T03:07:48.115Z,99.9
2022-10-18T03:11:54.206Z,99.9
2022-10-18T03:19:59.832Z,99.9
2022-10-18T03:22:01.233Z,99.9
2022-10-18T03:24:02.647Z,99.9
2022-10-18T03:26:07.336Z,99.9
2022-10-18T03:28:08.730Z,99.9
2022-10-18T03:30:10.119Z,99.9
2022-10-18T03:32:11.561Z,99.9
2022-10-18T03:34:12.918Z,99.9
2022-10-18T03:36:14.303Z,99.9
2022-10-18T03:38:15.735Z,99.9
2022-10-18T03:42:21.810Z,99.9
2022-10-18T03:46:24.612Z,99.9
2022-10-18T03:48:26.000Z,99.9
2022-10-18T03:50:27.422Z,99.9
2022-10-18T03:54:33.501Z,99.9
2022-10-18T03:56:34.886Z,99.9
2022-10-18T03:59:38.647Z,99.9
2022-10-18T04:01:41.681Z,99.9
2022-10-18T04:03:42.948Z,99.9
2022-10-18T04:05:44.366Z,99.9
2022-10-18T04:07:49.053Z,99.9
2022-10-18T04:09:50.443Z,99.9
2022-10-18T04:11:51.849Z,99.9
2022-10-18T04:13:53.253Z,99.9
2022-10-18T04:15:54.659Z,99.9
2022-10-18T04:17:56.071Z,99.9
2022-10-18T04:19:57.430Z,99.9
2022-10-18T04:22:02.133Z,99.9
2022-10-18T04:24:03.534Z,99.9
2022-10-18T04:26:04.939Z,99.9
2022-10-18T04:32:09.126Z,99.9
2022-10-18T04:34:10.574Z,99.9
2022-10-18T04:36:15.251Z,99.9
2022-10-18T04:38:16.794Z,99.9
2022-10-18T04:40:18.077Z,99.9
2022-10-18T04:42:19.483Z,99.9
2022-10-18T04:44:20.881Z,99.9
2022-10-18T04:46:22.234Z,99.9
2022-10-18T04:48:23.661Z,99.9
2022-10-18T04:50:28.355Z,99.9
2022-10-18T04:54:31.126Z,99.9
2022-10-18T04:56:53.960Z,99.9
2022-10-18T04:58:55.508Z,99.9
2022-10-18T05:00:56.896Z,99.9
2022-10-18T05:03:01.593Z,99.9
2022-10-18T05:05:02.957Z,99.9
2022-10-18T05:07:04.376Z,99.9
2022-10-18T05:13:08.531Z,99.9
2022-10-18T05:17:14.634Z,99.9
2022-10-18T05:19:16.073Z,99.9
2022-10-18T05:21:17.449Z,99.9
2022-10-18T05:27:21.622Z,99.9
2022-10-18T05:29:23.185Z,99.9
2022-10-18T05:33:29.131Z,99.9
2022-10-18T05:35:30.537Z,99.9
2022-10-18T05:37:31.952Z,99.9
2022-10-18T05:39:33.333Z,99.9
2022-10-18T05:41:34.744Z,99.9
2022-10-18T05:43:36.146Z,99.9
2022-10-18T05:45:40.877Z,99.9
2022-10-18T05:47:42.243Z,99.9
2022-10-18T05:49:43.787Z,99.9
2022-10-18T05:52:47.396Z,99.9
2022-10-18T05:56:50.174Z,99.9
2022-10-18T05:58:54.928Z,99.9
2022-10-18T06:03:00.218Z,99.9
2022-10-18T06:04:59.154Z,99.9
2022-10-18T06:07:00.552Z,99.9
2022-10-18T06:09:01.978Z,99.9
2022-10-18T06:11:03.365Z,99.9
2022-10-18T06:13:08.079Z,99.9
2022-10-18T06:15:09.428Z,99.9
2022-10-18T06:17:10.855Z,99.9
2022-10-18T06:19:12.268Z,99.9
2022-10-18T06:21:13.666Z,99.9
2022-10-18T06:23:15.102Z,99.9
2022-10-18T06:25:16.499Z,99.9
2022-10-18T06:27:21.169Z,99.9
2022-10-18T06:29:22.571Z,99.9
2022-10-18T06:31:23.978Z,99.9
2022-10-18T06:33:25.373Z,99.9
2022-10-18T06:35:26.798Z,99.9
2022-10-18T06:37:28.466Z,99.9
2022-10-18T06:39:29.582Z,99.9
2022-10-18T06:41:34.306Z,99.9
2022-10-18T06:43:35.742Z,99.9
2022-10-18T06:45:37.114Z,99.9
2022-10-18T06:46:39.488Z,99.9
2022-10-18T06:48:40.849Z,99.9
2022-10-18T06:50:42.246Z,99.9
2022-10-18T06:52:43.676Z,99.9
2022-10-18T06:54:48.356Z,99.9
2022-10-18T06:58:51.217Z,99.9
2022-10-18T07:00:52.559Z,99.9
2022-10-18T07:02:53.979Z,99.9
2022-10-18T07:09:01.505Z,99.9
2022-10-18T07:11:02.898Z,99.9
2022-10-18T07:13:30.454Z,99.9
2022-10-18T07:15:09.109Z,99.9
2022-10-18T07:17:07.130Z,99.9
2022-10-18T07:19:08.557Z,99.9
2022-10-18T07:21:09.942Z,99.9
2022-10-18T07:23:14.646Z,99.9
2022-10-18T07:25:16.040Z,99.9
2022-10-18T07:27:17.420Z,99.9
2022-10-18T07:29:18.846Z,99.9
2022-10-18T07:31:20.236Z,99.9
2022-10-18T07:33:21.643Z,99.9
2022-10-18T07:35:23.047Z,99.9
2022-10-18T07:37:29.437Z,99.9
2022-10-18T07:39:29.145Z,99.9
2022-10-18T07:41:30.539Z,99.9
2022-10-18T07:42:32.913Z,99.9
2022-10-18T07:44:34.293Z,99.9
2022-10-18T07:46:35.726Z,99.9
2022-10-18T07:48:37.123Z,99.9
2022-10-18T07:50:41.847Z,99.9
2022-10-18T07:52:43.427Z,99.9
2022-10-18T07:54:44.691Z,99.9
2022-10-18T07:56:46.037Z,99.9
2022-10-18T07:58:47.441Z,99.9
2022-10-18T08:00:48.825Z,99.9
2022-10-18T08:08:57.715Z,98.4
2022-10-18T08:10:59.120Z,96.6
2022-10-18T08:13:00.663Z,94.4
2022-10-18T08:15:01.961Z,93
2022-10-18T08:17:03.319Z,89
2022-10-18T08:19:08.039Z,89.1
2022-10-18T08:21:09.435Z,88.5
2022-10-18T08:23:10.812Z,88.3
2022-10-18T08:25:12.217Z,86.5
2022-10-18T08:29:23.209Z,83.3
2022-10-18T08:31:16.347Z,83.4
2022-10-18T08:33:21.091Z,85.7
2022-10-18T08:35:22.454Z,85.6
2022-10-18T08:37:23.842Z,88.2
2022-10-18T08:39:51.922Z,82.4
2022-10-18T08:41:53.314Z,81.6
2022-10-18T08:43:54.685Z,81.4
2022-10-18T08:45:59.424Z,79.1
2022-10-18T08:48:00.788Z,77.7
2022-10-18T08:50:02.133Z,76.8
2022-10-18T08:52:03.536Z,75
2022-10-18T08:54:04.924Z,75.4
2022-10-18T08:56:06.292Z,74.7
2022-10-18T09:04:15.126Z,68.8
2022-10-18T09:06:19.831Z,68.1
2022-10-18T09:08:17.994Z,64.5
2022-10-18T09:10:19.283Z,63.9
2022-10-18T09:12:20.682Z,62.5
2022-10-18T09:14:25.391Z,62.1
2022-10-18T09:16:26.762Z,61.4
2022-10-18T09:18:28.057Z,61.7
2022-10-18T09:20:29.414Z,61.5
2022-10-18T09:22:30.989Z,61.3
2022-10-18T09:24:32.166Z,59.3
2022-10-18T09:26:33.568Z,59.3
2022-10-18T09:28:38.320Z,60.6
2022-10-18T09:30:39.658Z,60.9
2022-10-18T09:32:40.948Z,61
2022-10-18T09:33:43.214Z,60.3
2022-10-18T09:35:44.594Z,59.2
2022-10-18T09:37:45.848Z,59
2022-10-18T09:39:47.206Z,59.2
2022-10-18T09:41:51.812Z,59.3
2022-10-18T09:43:53.181Z,59.4
2022-10-18T09:45:54.459Z,60.3
2022-10-18T09:47:55.825Z,62.2
2022-10-18T09:49:57.159Z,62.7
2022-10-18T09:52:00.106Z,63.1
2022-10-18T09:54:01.282Z,63.7
2022-10-18T09:56:05.921Z,64
2022-10-18T09:58:07.154Z,63.6
2022-10-18T10:00:08.398Z,63.6
2022-10-18T10:02:09.686Z,64.2
2022-10-18T10:04:11.018Z,64.2
2022-10-18T10:08:13.620Z,65.5
2022-10-18T10:10:18.274Z,65.3
2022-10-18T10:12:19.571Z,65.6
2022-10-18T10:14:20.869Z,65.5
2022-10-18T10:16:22.259Z,64.6
2022-10-18T10:18:23.410Z,64.4
2022-10-18T10:20:24.726Z,64.5
2022-10-18T10:22:26.012Z,64.6
2022-10-18T10:24:31.282Z,65
2022-10-18T10:26:32.025Z,64.8
2022-10-18T10:28:33.301Z,62.7
2022-10-18T10:29:44.504Z,62.7
2022-10-18T10:31:37.018Z,62.4
2022-10-18T10:33:38.100Z,62.3
2022-10-18T10:35:53.039Z,63.1
2022-10-18T10:37:43.974Z,60
2022-10-18T10:39:55.442Z,59.7
2022-10-18T10:41:46.629Z,59.2
2022-10-18T10:43:47.893Z,59.3
2022-10-18T10:45:49.238Z,60.5
2022-10-18T10:47:50.465Z,60.8
2022-10-18T10:49:51.729Z,62.2
2022-10-18T10:52:08.221Z,61.7
2022-10-18T10:53:57.556Z,61.5
2022-10-18T10:55:58.841Z,61.6
2022-10-18T10:58:00.191Z,60.5
2022-10-18T11:00:01.521Z,58.6
2022-10-18T11:02:02.777Z,58.7
2022-10-18T11:04:04.037Z,58.3
2022-10-18T11:06:08.574Z,58.1
2022-10-18T11:08:09.838Z,57.5
2022-10-18T11:10:11.095Z,56.8
2022-10-18T11:12:12.440Z,56.9
2022-10-18T11:14:25.368Z,57.4
2022-10-18T11:16:15.014Z,58.4
2022-10-18T11:18:16.286Z,58.8
2022-10-18T11:20:20.742Z,59.3
2022-10-18T11:22:21.951Z,59.2
2022-10-18T11:24:24.231Z,59.3
2022-10-18T11:25:25.446Z,59.2
2022-10-18T11:27:26.706Z,59.1
2022-10-18T11:29:27.943Z,59.1
2022-10-18T11:31:29.209Z,57.3
2022-10-18T11:33:50.031Z,57.2
2022-10-18T11:35:35.058Z,56.9
2022-10-18T11:37:38.520Z,57.8
2022-10-18T11:39:37.763Z,58
2022-10-18T11:41:39.140Z,58.2
2022-10-18T11:44:01.170Z,59.1
2022-10-18T11:45:41.688Z,59.4
2022-10-18T11:47:46.268Z,59.4
2022-10-18T11:49:47.522Z,59.7
2022-10-18T11:52:07.252Z,60.5
2022-10-18T11:53:52.024Z,60.6
2022-10-18T11:55:51.267Z,60.4
2022-10-18T11:57:52.545Z,60
2022-10-18T11:59:53.896Z,59.2
2022-10-18T12:01:58.457Z,58.4
2022-10-18T12:03:59.736Z,58.7
2022-10-18T12:06:00.957Z,60.4
2022-10-18T12:08:02.322Z,60.8
2022-10-18T12:10:03.502Z,61.4
2022-10-18T12:14:06.173Z,62.4
2022-10-18T12:16:10.816Z,63.8
2022-10-18T12:18:12.170Z,64
2022-10-18T12:20:13.493Z,64
2022-10-18T12:22:30.276Z,64.1
2022-10-18T12:24:31.075Z,63.4
2022-10-18T12:28:37.145Z,61.7
2022-10-18T12:30:38.170Z,61.6
2022-10-18T12:32:39.521Z,61.4
2022-10-18T12:34:40.896Z,61.7
2022-10-18T12:36:42.165Z,61.8
2022-10-18T12:38:43.499Z,62
2022-10-18T12:40:44.795Z,61.9
2022-10-18T12:42:49.267Z,62.4
2022-10-18T12:44:50.531Z,62.3
2022-10-18T12:46:51.895Z,62.6
2022-10-18T12:48:53.231Z,62.5
2022-10-18T12:50:54.524Z,62.6
2022-10-18T12:52:55.799Z,62.4
2022-10-18T12:54:57.041Z,61.7
2022-10-18T12:57:01.516Z,59.5
2022-10-18T12:59:02.867Z,59
2022-10-18T13:01:04.196Z,58.9
2022-10-18T13:03:05.466Z,59.3
2022-10-18T13:05:12.362Z,59
2022-10-18T13:07:08.066Z,56.7
2022-10-18T13:09:09.297Z,56.5
2022-10-18T13:11:13.777Z,56
2022-10-18T13:13:38.223Z,55.1
2022-10-18T13:16:18.514Z,54.5
2022-10-18T13:18:19.846Z,54.2
2022-10-18T13:20:26.145Z,53
2022-10-18T13:22:22.355Z,52.5
2022-10-18T13:24:26.929Z,50.9
2022-10-18T13:26:28.167Z,50.7
2022-10-18T13:28:29.448Z,50.4
2022-10-18T13:30:30.632Z,50.4
2022-10-18T13:32:32.131Z,50.7
2022-10-18T13:34:33.126Z,50.7
2022-10-18T13:36:34.362Z,50.5
2022-10-18T13:38:38.871Z,50.7
2022-10-18T13:40:40.203Z,50.3
2022-10-18T13:42:41.415Z,50.3
2022-10-18T13:44:42.709Z,50.1
2022-10-18T13:46:43.924Z,50
2022-10-18T13:48:45.185Z,48.2
2022-10-18T13:50:46.432Z,46
2022-10-18T13:52:50.913Z,45.3
2022-10-18T13:54:52.150Z,45.1
2022-10-18T13:56:53.421Z,44.9
2022-10-18T13:59:06.087Z,45.3
2022-10-18T14:00:56.008Z,45.1
2022-10-18T14:02:59.644Z,44.9
2022-10-18T14:05:10.850Z,45.4
2022-10-18T14:07:02.974Z,46.3
2022-10-18T14:09:13.774Z,46.8
2022-10-18T14:11:05.638Z,47.4
2022-10-18T14:12:07.863Z,48.3
2022-10-18T14:14:09.114Z,48.6
2022-10-18T14:16:10.367Z,49
2022-10-18T14:18:11.604Z,50.7
2022-10-18T14:24:18.568Z,52
2022-10-18T14:26:19.856Z,52.5
2022-10-18T14:28:27.463Z,52.8
2022-10-18T14:30:22.434Z,53.1
2022-10-18T14:32:23.641Z,54.2
2022-10-18T14:34:28.132Z,55.5
2022-10-18T14:36:29.419Z,56.5
2022-10-18T14:38:30.623Z,56.5
2022-10-18T14:40:31.879Z,56.7
2022-10-18T14:42:33.126Z,57.2
2022-10-18T14:44:34.415Z,57.9
2022-10-18T14:48:40.341Z,60
2022-10-18T14:50:41.599Z,60.6
2022-10-18T14:52:42.845Z,60.7
2022-10-18T14:54:44.125Z,61.1
2022-10-18T14:56:45.458Z,61.4
2022-10-18T14:58:46.704Z,61.8
2022-10-18T15:00:48.696Z,62.1
2022-10-18T15:02:52.481Z,62.9
2022-10-18T15:04:53.781Z,64.2
2022-10-18T15:06:55.166Z,64.5
2022-10-18T15:07:57.471Z,67.3
2022-10-18T15:09:58.743Z,68.2
2022-10-18T15:12:00.041Z,68.4
2022-10-18T15:14:01.400Z,68.8
2022-10-18T15:20:08.762Z,65.1
2022-10-18T15:22:32.665Z,64.6
2022-10-18T15:24:11.396Z,64.3
2022-10-18T15:26:12.663Z,64.2
2022-10-18T15:28:13.964Z,64.1
2022-10-18T15:30:18.457Z,64.6
2022-10-18T15:32:19.865Z,64.9
2022-10-18T15:34:21.190Z,64.9
2022-10-18T15:36:22.522Z,64.9
2022-10-18T15:38:23.880Z,64.4
2022-10-18T15:40:25.284Z,64.2
2022-10-18T15:42:26.713Z,64.1
2022-10-18T15:44:32.986Z,64.4
2022-10-18T15:46:34.334Z,64.7
2022-10-18T15:48:35.749Z,65
2022-10-18T15:50:37.113Z,65
2022-10-18T15:52:39.200Z,65.1
2022-10-18T15:54:39.913Z,64.8
2022-10-18T15:56:41.286Z,64.9
2022-10-18T15:58:45.971Z,65.3
2022-10-18T16:00:47.407Z,65.6
2022-10-18T16:02:48.742Z,65.8
2022-10-18T16:05:05.701Z,66.5
2022-10-18T16:07:07.077Z,66.9
2022-10-18T16:09:08.485Z,67.6
2022-10-18T16:11:13.179Z,69
2022-10-18T16:13:14.586Z,69.4
2022-10-18T16:15:15.988Z,70.4
2022-10-18T16:17:17.392Z,71.3
2022-10-18T16:19:18.777Z,71.7
2022-10-18T16:21:20.198Z,73.9
2022-10-18T16:23:21.569Z,77.4
2022-10-18T16:25:26.255Z,81.6
2022-10-18T16:27:27.655Z,83.3
2022-10-18T16:29:29.075Z,85.4
2022-10-18T16:31:30.489Z,87.7
2022-10-18T16:33:31.906Z,89
2022-10-18T16:35:33.272Z,89.8
2022-10-18T16:37:34.697Z,90.7
2022-10-18T16:39:39.406Z,92.3
2022-10-18T16:41:40.824Z,92.7
2022-10-18T16:43:42.241Z,93.4
2022-10-18T16:45:43.635Z,94.9
2022-10-18T16:47:45.055Z,96
2022-10-18T16:49:46.461Z,97.4
2022-10-18T16:51:47.865Z,98.1
2022-10-18T16:53:52.592Z,99.1
2022-10-18T16:55:54.020Z,99.5
2022-10-18T16:57:55.412Z,99.6
2022-10-18T16:58:57.761Z,99.9
2022-10-18T17:00:59.215Z,99.9
2022-10-18T17:03:00.582Z,99.9
2022-10-18T17:05:02.037Z,99.9
2022-10-18T17:07:06.697Z,99.9
2022-10-18T17:09:08.107Z,99.9
2022-10-18T17:11:09.651Z,99.9
2022-10-18T17:13:10.931Z,99.9
2022-10-18T17:15:12.357Z,99.9
2022-10-18T17:17:13.743Z,99.9
2022-10-18T17:19:15.221Z,99.9
2022-10-18T17:21:19.934Z,99.9
2022-10-18T17:23:21.343Z,99.9
2022-10-18T17:25:22.829Z,99.9
2022-10-18T17:27:24.168Z,99.9
2022-10-18T17:29:25.575Z,99.9
2022-10-18T17:31:26.991Z,99.9
2022-10-18T17:33:28.400Z,99.9
2022-10-18T17:35:33.131Z,99.9
2022-10-18T17:37:34.949Z,99.9
2022-10-18T17:39:35.948Z,99.9
2022-10-18T17:41:37.384Z,99.9
2022-10-18T17:45:40.196Z,99.9
2022-10-18T17:47:41.598Z,99.9
2022-10-18T17:49:46.331Z,99.9
2022-10-18T17:51:47.737Z,99.9
2022-10-18T17:53:49.146Z,99.9
2022-10-18T17:54:51.492Z,99.9
2022-10-18T17:56:53.853Z,99.9
2022-10-18T17:58:54.339Z,99.9
2022-10-18T18:00:55.781Z,99.9
2022-10-18T18:03:00.613Z,99.9
2022-10-18T18:05:01.965Z,99.9
2022-10-18T18:07:03.378Z,99.9
2022-10-18T18:09:04.774Z,99.9
2022-10-18T18:11:06.183Z,99.9
2022-10-18T18:13:07.613Z,99.9
2022-10-18T18:15:08.998Z,99.9
2022-10-18T18:17:13.718Z,99.9
2022-10-18T18:19:15.142Z,99.9
2022-10-18T18:21:16.530Z,99.9
2022-10-18T18:23:17.944Z,99.9
2022-10-18T18:25:19.337Z,99.9
2022-10-18T18:27:20.792Z,99.9
2022-10-18T18:29:22.211Z,99.9
2022-10-18T18:31:28.403Z,99.9
2022-10-18T18:35:29.717Z,99.9
2022-10-18T18:37:31.140Z,99.9
2022-10-18T18:39:32.516Z,99.9
2022-10-18T18:45:40.133Z,99.9
2022-10-18T18:47:41.543Z,99.9
2022-10-18T18:49:42.907Z,99.9
2022-10-18T18:50:45.261Z,99.9
2022-10-18T18:52:46.667Z,99.9
2022-10-18T18:54:48.095Z,99.9
2022-10-18T18:56:49.503Z,99.9
2022-10-18T18:58:54.197Z,99.9
2022-10-18T19:00:55.605Z,99.9
2022-10-18T19:02:57.014Z,99.9
2022-10-18T19:06:59.831Z,99.9
2022-10-18T19:09:01.244Z,99.9
2022-10-18T19:11:02.655Z,99.9
2022-10-18T19:13:07.360Z,99.9
2022-10-18T19:15:08.771Z,99.9
2022-10-18T19:17:10.208Z,99.9
2022-10-18T19:19:11.584Z,99.9
2022-10-18T19:21:12.997Z,99.9
2022-10-18T19:23:14.456Z,99.9
2022-10-18T19:25:15.779Z,99.9
2022-10-18T19:27:20.477Z,99.9
2022-10-18T19:29:21.860Z,99.9
2022-10-18T19:31:23.271Z,99.9
2022-10-18T19:41:33.665Z,99.9
2022-10-18T19:43:35.065Z,99.9
2022-10-18T19:45:36.455Z,99.9
2022-10-18T19:47:59.651Z,99.9
2022-10-18T19:50:01.044Z,99.9
2022-10-18T19:52:02.418Z,99.9
2022-10-18T19:54:07.155Z,99.9
2022-10-18T19:58:09.999Z,99.9
2022-10-18T20:02:12.728Z,99.9
2022-10-18T20:04:14.115Z,99.9
2022-10-18T20:06:15.513Z,99.9
2022-10-18T20:08:20.214Z,99.9
2022-10-18T20:10:21.725Z,99.9
2022-10-18T20:12:23.009Z,99.9
2022-10-18T20:14:24.418Z,99.9
2022-10-18T20:16:28.075Z,99.9
2022-10-18T20:18:27.220Z,99.9
2022-10-18T20:20:28.731Z,99.9
2022-10-18T20:22:33.657Z,99.9
2022-10-18T20:24:34.890Z,99.9
2022-10-18T20:26:36.275Z,99.9
2022-10-18T20:28:37.733Z,99.9
2022-10-18T20:30:39.041Z,99.9
2022-10-18T20:32:40.435Z,99.9
2022-10-18T20:34:41.809Z,99.9
2022-10-18T20:36:46.484Z,99.9
2022-10-18T20:38:47.956Z,99.9
2022-10-18T20:40:49.337Z,99.9
2022-10-18T20:41:51.653Z,99.9
2022-10-18T20:45:54.595Z,99.9
2022-10-18T20:47:55.819Z,99.9
2022-10-18T20:56:04.639Z,99.9
2022-10-18T20:58:06.037Z,99.9
2022-10-18T21:00:07.460Z,99.9
2022-10-18T21:02:08.800Z,99.9
2022-10-18T21:04:13.457Z,99.9
2022-10-18T21:06:14.883Z,99.9
2022-10-18T21:08:16.218Z,99.9
2022-10-18T21:10:17.601Z,99.9
2022-10-18T21:12:19.032Z,99.9
2022-10-18T21:14:20.453Z,99.9
2022-10-18T21:16:21.836Z,99.9
2022-10-18T21:18:26.508Z,99.9
2022-10-18T21:22:29.337Z,99.9
2022-10-18T21:30:34.853Z,99.9
2022-10-18T21:36:43.852Z,99.9
2022-10-18T21:37:46.175Z,99.9
2022-10-18T21:39:47.565Z,99.9
2022-10-18T21:41:48.935Z,99.9
2022-10-18T21:45:54.987Z,99.9
2022-10-18T21:47:56.364Z,99.9
2022-10-18T21:49:57.810Z,99.9
2022-10-18T21:51:59.185Z,99.9
2022-10-18T21:56:01.959Z,99.9
2022-10-18T21:58:03.288Z,99.9
2022-10-18T22:10:14.634Z,99.9
2022-10-18T22:14:20.803Z,99.9
2022-10-18T22:16:22.186Z,99.9
2022-10-18T22:18:23.554Z,99.9
2022-10-18T22:20:24.928Z,99.9
2022-10-18T22:22:26.311Z,99.9
2022-10-18T22:24:27.772Z,99.9
2022-10-18T22:26:29.088Z,99.9
2022-10-18T22:28:33.869Z,99.9
2022-10-18T22:30:35.328Z,99.9
2022-10-18T22:32:36.688Z,99.9
2022-10-18T22:33:39.149Z,99.9
2022-10-18T22:35:40.417Z,99.9
2022-10-18T22:37:41.786Z,99.9
2022-10-18T22:39:43.176Z,99.9
2022-10-18T22:41:47.854Z,99.9
2022-10-18T22:43:49.221Z,99.9
2022-10-18T22:45:50.599Z,99.9
2022-10-18T22:47:51.967Z,99.9
2022-10-18T22:49:53.355Z,99.9
2022-10-18T22:51:54.733Z,99.9
2022-10-18T22:53:56.087Z,99.9
2022-10-18T22:56:00.736Z,99.9
2022-10-18T22:58:02.094Z,99.9
2022-10-18T23:00:03.502Z,99.9
2022-10-18T23:02:04.860Z,99.9
2022-10-18T23:04:06.207Z,99.9
2022-10-18T23:06:07.590Z,99.9
2022-10-18T23:08:08.977Z,99.9
2022-10-18T23:10:13.621Z,99.9
2022-10-18T23:12:14.986Z,99.9
2022-10-18T23:14:16.354Z,99.9
2022-10-18T23:24:26.503Z,99.9
2022-10-18T23:30:52.654Z,99.9
2022-10-18T23:32:54.003Z,99.9
2022-10-18T23:34:55.389Z,99.9
2022-10-18T23:37:00.031Z,99.9
2022-10-18T23:39:01.400Z,99.9
2022-10-18T23:41:02.783Z,99.9
2022-10-18T23:43:04.170Z,99.9
2022-10-18T23:45:07.262Z,99.9
2022-10-18T23:47:06.945Z,99.9
2022-10-18T23:53:14.378Z,99.9
2022-10-18T23:55:15.731Z,99.9
2022-10-18T23:57:17.081Z,99.9
2022-10-18T23:59:18.470Z,99.9
